MSC908 UWKD-HESH
Flight info
| Callsign | MSC908 |
|---|---|
| Flight time | N/A |
| Altitude | 36000 |
| Route | INTAR1G INTAR M161 URL W324 AKT N37 IPLED G96 MKL A955 LURIS/N0449F360 DCT BARUS DCT SARPI UN37 TBN UW706 SIV/N0449F370 UT284 EVKIT UL620 VESAR DCT PASOS L550 DATOK J981 NOVPA R650 SHM |
| Aircraft | A20N/M-SDE2E3FGHIRWXY/LB1 |
Departure
| Time | 2026-04-27 10:12 |
|---|---|
| Airport | Kazan International Airport (UWKD) |
Arrival
| Time | N/A |
|---|---|
| Airport | Sharm El Sheikh International Airport (HESH) |
| Time | Latitude | Longitude | Altitude | Speed | Heading |
|---|---|---|---|---|---|
| 2026-04-27 09:40 | 55.60696 | 49.30022 | 420 ft | 0 kts | 35° |
| 2026-04-27 10:00 | 55.60692 | 49.30016 | 420 ft | 2 kts | 36° |
| 2026-04-27 10:00 | 55.60681 | 49.30003 | 420 ft | 0 kts | 34° |
| 2026-04-27 10:01 | 55.60671 | 49.29992 | 420 ft | 2 kts | 22° |
| 2026-04-27 10:01 | 55.60657 | 49.29984 | 420 ft | 2 kts | 8° |
| 2026-04-27 10:01 | 55.60642 | 49.29983 | 420 ft | 2 kts | 353° |
| 2026-04-27 10:01 | 55.60627 | 49.29989 | 420 ft | 2 kts | 338° |
| 2026-04-27 10:02 | 55.60614 | 49.30001 | 420 ft | 2 kts | 323° |
| 2026-04-27 10:02 | 55.60603 | 49.30018 | 420 ft | 1 kts | 308° |
| 2026-04-27 10:02 | 55.60599 | 49.30027 | 420 ft | 1 kts | 303° |
| 2026-04-27 10:02 | 55.60598 | 49.30030 | 420 ft | 0 kts | 304° |
| 2026-04-27 10:04 | 55.60601 | 49.30023 | 420 ft | 2 kts | 304° |
| 2026-04-27 10:05 | 55.60618 | 49.29983 | 420 ft | 6 kts | 306° |
| 2026-04-27 10:05 | 55.60650 | 49.29902 | 420 ft | 9 kts | 304° |
| 2026-04-27 10:05 | 55.60695 | 49.29785 | 420 ft | 12 kts | 304° |
| 2026-04-27 10:05 | 55.60747 | 49.29651 | 420 ft | 14 kts | 304° |
| 2026-04-27 10:06 | 55.60802 | 49.29507 | 420 ft | 11 kts | 303° |
| 2026-04-27 10:06 | 55.60792 | 49.29404 | 420 ft | 9 kts | 224° |
| 2026-04-27 10:06 | 55.60741 | 49.29338 | 420 ft | 9 kts | 213° |
| 2026-04-27 10:06 | 55.60690 | 49.29277 | 420 ft | 9 kts | 214° |
| 2026-04-27 10:07 | 55.60629 | 49.29207 | 420 ft | 11 kts | 214° |
| 2026-04-27 10:07 | 55.60578 | 49.29096 | 420 ft | 12 kts | 254° |
| 2026-04-27 10:07 | 55.60582 | 49.28932 | 420 ft | 14 kts | 273° |
| 2026-04-27 10:07 | 55.60589 | 49.28747 | 420 ft | 14 kts | 273° |
| 2026-04-27 10:08 | 55.60611 | 49.28576 | 420 ft | 14 kts | 303° |
| 2026-04-27 10:08 | 55.60668 | 49.28424 | 420 ft | 15 kts | 304° |
| 2026-04-27 10:08 | 55.60728 | 49.28268 | 420 ft | 15 kts | 304° |
| 2026-04-27 10:08 | 55.60792 | 49.28108 | 420 ft | 15 kts | 305° |
| 2026-04-27 10:09 | 55.60856 | 49.27940 | 420 ft | 17 kts | 304° |
| 2026-04-27 10:09 | 55.60923 | 49.27768 | 420 ft | 17 kts | 304° |
| 2026-04-27 10:09 | 55.60992 | 49.27591 | 420 ft | 17 kts | 303° |
| 2026-04-27 10:09 | 55.61059 | 49.27414 | 420 ft | 17 kts | 304° |
| 2026-04-27 10:10 | 55.61129 | 49.27236 | 420 ft | 17 kts | 304° |
| 2026-04-27 10:10 | 55.61194 | 49.27070 | 420 ft | 13 kts | 305° |
| 2026-04-27 10:10 | 55.61218 | 49.26943 | 420 ft | 11 kts | 251° |
| 2026-04-27 10:10 | 55.61162 | 49.26862 | 420 ft | 10 kts | 216° |
| 2026-04-27 10:11 | 55.61113 | 49.26779 | 420 ft | 9 kts | 235° |
| 2026-04-27 10:11 | 55.61063 | 49.26757 | 420 ft | 7 kts | 144° |
| 2026-04-27 10:11 | 55.61056 | 49.26771 | 420 ft | 0 kts | 125° |
| 2026-04-27 10:12 | 55.60964 | 49.27013 | 420 ft | 59 kts | 122° |
| 2026-04-27 10:12 | 55.60604 | 49.27929 | 420 ft | 120 kts | 124° |
| 2026-04-27 10:12 | 55.60035 | 49.29406 | 494 ft | 163 kts | 128° |
| 2026-04-27 10:12 | 55.59433 | 49.31076 | 1172 ft | 163 kts | 128° |
| 2026-04-27 10:13 | 55.58848 | 49.32721 | 1966 ft | 162 kts | 130° |
| 2026-04-27 10:13 | 55.58241 | 49.34279 | 2817 ft | 154 kts | 135° |
| 2026-04-27 10:13 | 55.57623 | 49.35776 | 3431 ft | 152 kts | 136° |
| 2026-04-27 10:13 | 55.56992 | 49.37304 | 3862 ft | 160 kts | 136° |
| 2026-04-27 10:14 | 55.56309 | 49.38971 | 4185 ft | 176 kts | 135° |
| 2026-04-27 10:14 | 55.55571 | 49.40812 | 4512 ft | 193 kts | 134° |
| 2026-04-27 10:14 | 55.54737 | 49.42757 | 4812 ft | 209 kts | 139° |
| 2026-04-27 10:14 | 55.53706 | 49.44715 | 5163 ft | 224 kts | 143° |
| 2026-04-27 10:15 | 55.52503 | 49.46564 | 5638 ft | 235 kts | 147° |
| 2026-04-27 10:15 | 55.51263 | 49.48432 | 6381 ft | 240 kts | 144° |
| 2026-04-27 10:15 | 55.50068 | 49.50474 | 7171 ft | 242 kts | 143° |
| 2026-04-27 10:15 | 55.48871 | 49.52535 | 7971 ft | 242 kts | 143° |
| 2026-04-27 10:16 | 55.47681 | 49.54579 | 8775 ft | 242 kts | 144° |
| 2026-04-27 10:16 | 55.46474 | 49.56655 | 9552 ft | 242 kts | 144° |
| 2026-04-27 10:16 | 55.45273 | 49.58712 | 10170 ft | 247 kts | 144° |
| 2026-04-27 10:16 | 55.43994 | 49.60886 | 10465 ft | 263 kts | 143° |
| 2026-04-27 10:17 | 55.42661 | 49.63158 | 10759 ft | 279 kts | 143° |
| 2026-04-27 10:17 | 55.41219 | 49.65622 | 11058 ft | 294 kts | 143° |
| 2026-04-27 10:17 | 55.39732 | 49.68169 | 11433 ft | 305 kts | 143° |
| 2026-04-27 10:17 | 55.38212 | 49.70779 | 12038 ft | 309 kts | 142° |
| 2026-04-27 10:18 | 55.36667 | 49.73431 | 12676 ft | 311 kts | 143° |
| 2026-04-27 10:18 | 55.35136 | 49.76047 | 13268 ft | 313 kts | 143° |
| 2026-04-27 10:18 | 55.33566 | 49.78729 | 13847 ft | 317 kts | 143° |
| 2026-04-27 10:18 | 55.31974 | 49.81433 | 14431 ft | 319 kts | 144° |
| 2026-04-27 10:19 | 55.30260 | 49.83829 | 14916 ft | 317 kts | 153° |
| 2026-04-27 10:19 | 55.28337 | 49.85683 | 15413 ft | 317 kts | 161° |
| 2026-04-27 10:19 | 55.26292 | 49.86993 | 15956 ft | 317 kts | 166° |
| 2026-04-27 10:19 | 55.24166 | 49.88144 | 16525 ft | 319 kts | 167° |
| 2026-04-27 10:20 | 55.22037 | 49.89285 | 17022 ft | 322 kts | 167° |
| 2026-04-27 10:20 | 55.19886 | 49.90426 | 17502 ft | 326 kts | 167° |
| 2026-04-27 10:20 | 55.17734 | 49.91566 | 18046 ft | 327 kts | 168° |
| 2026-04-27 10:20 | 55.15568 | 49.92712 | 18510 ft | 330 kts | 167° |
| 2026-04-27 10:21 | 55.13369 | 49.93868 | 18959 ft | 333 kts | 168° |
| 2026-04-27 10:21 | 55.11158 | 49.95031 | 19441 ft | 335 kts | 168° |
| 2026-04-27 10:21 | 55.08894 | 49.96219 | 19908 ft | 337 kts | 168° |
| 2026-04-27 10:21 | 55.06667 | 49.97382 | 20367 ft | 339 kts | 168° |
| 2026-04-27 10:22 | 55.04418 | 49.98562 | 20827 ft | 340 kts | 168° |
| 2026-04-27 10:22 | 55.02128 | 49.99757 | 21222 ft | 343 kts | 168° |
| 2026-04-27 10:22 | 54.99866 | 50.00936 | 21628 ft | 345 kts | 168° |
| 2026-04-27 10:22 | 54.97563 | 50.02138 | 22045 ft | 347 kts | 168° |
| 2026-04-27 10:23 | 54.95259 | 50.03337 | 22463 ft | 348 kts | 168° |
| 2026-04-27 10:23 | 54.92939 | 50.04543 | 22874 ft | 349 kts | 168° |
| 2026-04-27 10:23 | 54.90602 | 50.05758 | 23237 ft | 351 kts | 168° |
| 2026-04-27 10:23 | 54.88270 | 50.06969 | 23612 ft | 353 kts | 168° |
| 2026-04-27 10:24 | 54.85886 | 50.08202 | 24012 ft | 355 kts | 169° |
| 2026-04-27 10:24 | 54.83545 | 50.09412 | 24401 ft | 357 kts | 168° |
| 2026-04-27 10:24 | 54.81134 | 50.10656 | 24751 ft | 359 kts | 168° |
| 2026-04-27 10:24 | 54.78759 | 50.11881 | 25100 ft | 361 kts | 169° |
| 2026-04-27 10:25 | 54.76331 | 50.13131 | 25402 ft | 364 kts | 169° |
| 2026-04-27 10:25 | 54.73907 | 50.14380 | 25718 ft | 366 kts | 168° |
| 2026-04-27 10:25 | 54.71482 | 50.15629 | 26028 ft | 368 kts | 169° |
| 2026-04-27 10:25 | 54.69034 | 50.16888 | 26315 ft | 370 kts | 169° |
| 2026-04-27 10:26 | 54.66562 | 50.18153 | 26638 ft | 372 kts | 168° |
| 2026-04-27 10:26 | 54.64075 | 50.19430 | 26926 ft | 373 kts | 168° |
| 2026-04-27 10:26 | 54.61585 | 50.20708 | 27271 ft | 374 kts | 169° |
| 2026-04-27 10:26 | 54.59129 | 50.21967 | 27642 ft | 373 kts | 169° |
| 2026-04-27 10:27 | 54.56654 | 50.23234 | 28059 ft | 371 kts | 169° |
| 2026-04-27 10:27 | 54.54187 | 50.24494 | 28387 ft | 371 kts | 169° |
| 2026-04-27 10:27 | 54.51727 | 50.25741 | 28719 ft | 370 kts | 169° |
| 2026-04-27 10:27 | 54.49272 | 50.26989 | 29071 ft | 370 kts | 169° |
| 2026-04-27 10:28 | 54.46795 | 50.28248 | 29437 ft | 368 kts | 169° |
| 2026-04-27 10:28 | 54.44349 | 50.29336 | 29757 ft | 365 kts | 173° |
| 2026-04-27 10:28 | 54.41856 | 50.30144 | 30135 ft | 361 kts | 175° |
| 2026-04-27 10:28 | 54.39406 | 50.30671 | 30441 ft | 359 kts | 179° |
| 2026-04-27 10:29 | 54.36912 | 50.30924 | 30699 ft | 357 kts | 182° |
| 2026-04-27 10:29 | 54.34436 | 50.30909 | 30971 ft | 355 kts | 185° |
| 2026-04-27 10:29 | 54.31982 | 50.30628 | 31208 ft | 354 kts | 188° |
| 2026-04-27 10:29 | 54.29554 | 50.30239 | 31446 ft | 354 kts | 187° |
| 2026-04-27 10:30 | 54.27103 | 50.29865 | 31684 ft | 353 kts | 187° |
| 2026-04-27 10:30 | 54.24656 | 50.29487 | 31904 ft | 353 kts | 187° |
| 2026-04-27 10:30 | 54.22210 | 50.29102 | 32139 ft | 353 kts | 187° |
| 2026-04-27 10:30 | 54.19786 | 50.28714 | 32345 ft | 352 kts | 188° |
| 2026-04-27 10:31 | 54.17370 | 50.28323 | 32536 ft | 352 kts | 188° |
| 2026-04-27 10:31 | 54.14926 | 50.27930 | 32726 ft | 352 kts | 188° |
| 2026-04-27 10:31 | 54.12485 | 50.27531 | 32908 ft | 352 kts | 188° |
| 2026-04-27 10:31 | 54.10053 | 50.27135 | 33101 ft | 351 kts | 188° |
| 2026-04-27 10:32 | 54.07651 | 50.26751 | 33282 ft | 351 kts | 188° |
| 2026-04-27 10:32 | 54.05206 | 50.26355 | 33461 ft | 351 kts | 188° |
| 2026-04-27 10:32 | 54.02775 | 50.25964 | 33624 ft | 350 kts | 188° |
| 2026-04-27 10:32 | 54.00378 | 50.25578 | 33778 ft | 351 kts | 188° |
| 2026-04-27 10:33 | 53.97942 | 50.25185 | 33915 ft | 351 kts | 188° |
| 2026-04-27 10:33 | 53.95520 | 50.24793 | 34043 ft | 351 kts | 188° |
| 2026-04-27 10:33 | 53.93075 | 50.24400 | 34155 ft | 352 kts | 188° |
| 2026-04-27 10:33 | 53.90649 | 50.24005 | 34234 ft | 353 kts | 188° |
| 2026-04-27 10:34 | 53.88199 | 50.23610 | 34374 ft | 353 kts | 189° |
| 2026-04-27 10:34 | 53.85772 | 50.23215 | 34508 ft | 354 kts | 188° |
| 2026-04-27 10:34 | 53.80860 | 50.22424 | 34682 ft | 355 kts | 189° |
| 2026-04-27 10:35 | 53.75972 | 50.21641 | 34891 ft | 356 kts | 188° |
| 2026-04-27 10:35 | 53.73517 | 50.21251 | 34995 ft | 356 kts | 189° |
| 2026-04-27 10:35 | 53.71038 | 50.20851 | 35090 ft | 357 kts | 189° |
| 2026-04-27 10:36 | 53.66106 | 50.20062 | 35295 ft | 357 kts | 188° |
| 2026-04-27 10:36 | 53.61175 | 50.19276 | 35636 ft | 360 kts | 189° |
| 2026-04-27 10:37 | 53.58682 | 50.18933 | 35482 ft | 361 kts | 187° |
| 2026-04-27 10:37 | 53.56160 | 50.18789 | 35526 ft | 362 kts | 185° |
| 2026-04-27 10:37 | 53.51129 | 50.19124 | 35628 ft | 368 kts | 180° |
| 2026-04-27 10:38 | 53.46035 | 50.20303 | 35669 ft | 372 kts | 175° |
| 2026-04-27 10:38 | 53.40985 | 50.22348 | 35700 ft | 377 kts | 171° |
| 2026-04-27 10:39 | 53.35914 | 50.24634 | 35699 ft | 375 kts | 171° |
| 2026-04-27 10:39 | 53.30893 | 50.26898 | 35707 ft | 377 kts | 172° |
| 2026-04-27 10:40 | 53.25829 | 50.29187 | 35704 ft | 377 kts | 171° |
| 2026-04-27 10:40 | 53.20782 | 50.31469 | 35712 ft | 376 kts | 171° |
| 2026-04-27 10:41 | 53.15746 | 50.33750 | 35718 ft | 376 kts | 171° |
| 2026-04-27 10:41 | 53.10691 | 50.36031 | 35725 ft | 377 kts | 172° |
| 2026-04-27 10:42 | 53.05661 | 50.38292 | 35728 ft | 377 kts | 172° |
| 2026-04-27 10:42 | 53.00621 | 50.40552 | 35727 ft | 376 kts | 172° |
| 2026-04-27 10:43 | 52.95598 | 50.42801 | 35716 ft | 376 kts | 172° |
| 2026-04-27 10:43 | 52.90550 | 50.45059 | 35727 ft | 376 kts | 172° |
| 2026-04-27 10:44 | 52.85474 | 50.47319 | 35752 ft | 376 kts | 172° |
| 2026-04-27 10:44 | 52.80469 | 50.49547 | 35746 ft | 377 kts | 172° |
| 2026-04-27 10:45 | 52.75407 | 50.51790 | 35748 ft | 377 kts | 172° |
| 2026-04-27 10:45 | 52.70367 | 50.54022 | 35751 ft | 377 kts | 172° |
| 2026-04-27 10:46 | 52.65312 | 50.56256 | 35765 ft | 378 kts | 172° |
| 2026-04-27 10:46 | 52.60218 | 50.58499 | 35754 ft | 377 kts | 172° |
| 2026-04-27 10:47 | 52.55186 | 50.60711 | 35778 ft | 378 kts | 172° |
| 2026-04-27 10:47 | 52.50093 | 50.62941 | 35765 ft | 378 kts | 172° |
| 2026-04-27 10:48 | 52.45011 | 50.65168 | 35773 ft | 378 kts | 173° |
| 2026-04-27 10:48 | 52.39957 | 50.67370 | 35773 ft | 378 kts | 172° |
| 2026-04-27 10:49 | 52.34850 | 50.69591 | 35782 ft | 379 kts | 173° |
| 2026-04-27 10:49 | 52.29777 | 50.71790 | 35794 ft | 378 kts | 172° |
| 2026-04-27 10:50 | 52.24733 | 50.73978 | 35804 ft | 379 kts | 173° |
| 2026-04-27 10:50 | 52.19612 | 50.76197 | 35803 ft | 380 kts | 173° |
| 2026-04-27 10:51 | 52.14529 | 50.78389 | 35805 ft | 380 kts | 173° |
| 2026-04-27 10:51 | 52.09424 | 50.80585 | 35806 ft | 380 kts | 173° |
| 2026-04-27 10:52 | 52.04348 | 50.82758 | 35817 ft | 379 kts | 173° |
| 2026-04-27 10:52 | 51.99228 | 50.84949 | 35819 ft | 381 kts | 173° |
| 2026-04-27 10:53 | 51.91590 | 50.88217 | 35815 ft | 381 kts | 173° |
| 2026-04-27 10:54 | 51.86468 | 50.90427 | 35840 ft | 381 kts | 172° |
| 2026-04-27 10:54 | 51.81321 | 50.92641 | 35827 ft | 381 kts | 172° |
| 2026-04-27 10:55 | 51.76185 | 50.94843 | 35839 ft | 382 kts | 172° |
| 2026-04-27 10:55 | 51.71122 | 50.97382 | 35833 ft | 387 kts | 168° |
| 2026-04-27 10:56 | 51.66136 | 51.00789 | 35832 ft | 394 kts | 162° |
| 2026-04-27 10:56 | 51.61291 | 51.05097 | 35825 ft | 401 kts | 157° |
| 2026-04-27 10:57 | 51.56623 | 51.10019 | 35827 ft | 402 kts | 156° |
| 2026-04-27 10:57 | 51.51941 | 51.14951 | 35831 ft | 404 kts | 156° |
| 2026-04-27 10:58 | 51.47254 | 51.19894 | 35830 ft | 406 kts | 155° |
| 2026-04-27 10:58 | 51.42565 | 51.24857 | 35830 ft | 407 kts | 155° |
| 2026-04-27 10:59 | 51.37850 | 51.29912 | 35837 ft | 408 kts | 155° |
| 2026-04-27 10:59 | 51.33156 | 51.34930 | 35842 ft | 408 kts | 155° |
| 2026-04-27 11:00 | 51.26085 | 51.42451 | 35845 ft | 409 kts | 155° |
| 2026-04-27 11:00 | 51.21315 | 51.47444 | 35840 ft | 408 kts | 158° |
| 2026-04-27 11:01 | 51.16325 | 51.51336 | 35840 ft | 396 kts | 167° |
| 2026-04-27 11:01 | 51.11098 | 51.53807 | 35838 ft | 389 kts | 175° |
| 2026-04-27 11:02 | 51.05806 | 51.54877 | 35835 ft | 382 kts | 183° |
| 2026-04-27 11:02 | 51.00485 | 51.55257 | 35842 ft | 383 kts | 183° |
| 2026-04-27 11:03 | 50.95175 | 51.55623 | 35851 ft | 382 kts | 183° |
| 2026-04-27 11:03 | 50.89889 | 51.55981 | 35858 ft | 383 kts | 183° |
| 2026-04-27 11:04 | 50.84577 | 51.56336 | 35862 ft | 384 kts | 183° |
| 2026-04-27 11:04 | 50.79216 | 51.56690 | 35862 ft | 384 kts | 183° |
| 2026-04-27 11:05 | 50.73901 | 51.57043 | 35863 ft | 386 kts | 183° |
| 2026-04-27 11:05 | 50.68529 | 51.57396 | 35869 ft | 385 kts | 183° |
| 2026-04-27 11:06 | 50.63173 | 51.57748 | 35870 ft | 385 kts | 183° |
| 2026-04-27 11:06 | 50.57846 | 51.58097 | 35873 ft | 385 kts | 184° |
| 2026-04-27 11:07 | 50.52519 | 51.58442 | 35876 ft | 386 kts | 184° |
| 2026-04-27 11:07 | 50.47165 | 51.58789 | 35874 ft | 387 kts | 184° |
| 2026-04-27 11:08 | 50.41772 | 51.59143 | 35871 ft | 386 kts | 183° |
| 2026-04-27 11:08 | 50.36430 | 51.59515 | 35871 ft | 388 kts | 183° |
| 2026-04-27 11:09 | 50.31029 | 51.59890 | 35874 ft | 389 kts | 183° |
| 2026-04-27 11:09 | 50.25657 | 51.60263 | 35876 ft | 388 kts | 183° |
| 2026-04-27 11:10 | 50.20264 | 51.60636 | 35873 ft | 389 kts | 183° |
| 2026-04-27 11:10 | 50.14861 | 51.61006 | 35880 ft | 389 kts | 183° |
| 2026-04-27 11:11 | 50.09441 | 51.61380 | 35877 ft | 390 kts | 183° |
| 2026-04-27 11:11 | 50.04036 | 51.61745 | 35880 ft | 390 kts | 183° |
| 2026-04-27 11:12 | 49.98642 | 51.62114 | 35879 ft | 391 kts | 183° |
| 2026-04-27 11:12 | 49.93226 | 51.62481 | 35880 ft | 391 kts | 183° |
| 2026-04-27 11:13 | 49.87774 | 51.62844 | 35879 ft | 391 kts | 183° |
| 2026-04-27 11:13 | 49.82340 | 51.63209 | 35882 ft | 392 kts | 183° |
| 2026-04-27 11:14 | 49.76901 | 51.63574 | 35886 ft | 392 kts | 183° |
| 2026-04-27 11:14 | 49.71473 | 51.63937 | 35894 ft | 393 kts | 183° |
| 2026-04-27 11:15 | 49.66011 | 51.64305 | 35899 ft | 393 kts | 183° |
| 2026-04-27 11:15 | 49.60533 | 51.64669 | 35900 ft | 394 kts | 182° |
| 2026-04-27 11:16 | 49.55072 | 51.65032 | 35901 ft | 395 kts | 183° |
| 2026-04-27 11:16 | 49.49612 | 51.65396 | 35901 ft | 395 kts | 184° |
| 2026-04-27 11:17 | 49.44134 | 51.65757 | 35901 ft | 395 kts | 184° |
| 2026-04-27 11:17 | 49.38628 | 51.66120 | 35900 ft | 396 kts | 184° |
| 2026-04-27 11:18 | 49.33132 | 51.66484 | 35906 ft | 396 kts | 184° |
| 2026-04-27 11:18 | 49.27627 | 51.66846 | 35907 ft | 397 kts | 183° |
| 2026-04-27 11:19 | 49.22114 | 51.67205 | 35910 ft | 397 kts | 183° |
| 2026-04-27 11:19 | 49.16615 | 51.67566 | 35913 ft | 397 kts | 183° |
| 2026-04-27 11:20 | 49.11108 | 51.67923 | 35913 ft | 398 kts | 183° |
| 2026-04-27 11:20 | 49.05560 | 51.68285 | 35916 ft | 398 kts | 183° |
| 2026-04-27 11:21 | 49.00061 | 51.68644 | 35920 ft | 399 kts | 183° |
| 2026-04-27 11:21 | 48.94505 | 51.69008 | 35914 ft | 399 kts | 183° |
| 2026-04-27 11:22 | 48.89005 | 51.69363 | 35917 ft | 399 kts | 183° |
| 2026-04-27 11:22 | 48.83448 | 51.69720 | 35915 ft | 399 kts | 183° |
| 2026-04-27 11:23 | 48.77880 | 51.70079 | 35910 ft | 400 kts | 183° |
| 2026-04-27 11:23 | 48.72339 | 51.70435 | 35917 ft | 400 kts | 183° |
| 2026-04-27 11:24 | 48.66775 | 51.70788 | 35921 ft | 401 kts | 183° |
| 2026-04-27 11:24 | 48.61208 | 51.71143 | 35924 ft | 402 kts | 183° |
| 2026-04-27 11:25 | 48.55662 | 51.71496 | 35930 ft | 402 kts | 183° |
| 2026-04-27 11:25 | 48.50051 | 51.71853 | 35928 ft | 403 kts | 183° |
| 2026-04-27 11:26 | 48.44461 | 51.72207 | 35934 ft | 403 kts | 183° |
| 2026-04-27 11:26 | 48.38877 | 51.72561 | 35935 ft | 403 kts | 183° |
| 2026-04-27 11:27 | 48.33289 | 51.72913 | 35938 ft | 404 kts | 183° |
| 2026-04-27 11:27 | 48.27685 | 51.73266 | 35949 ft | 404 kts | 183° |
| 2026-04-27 11:28 | 48.22090 | 51.73616 | 35956 ft | 405 kts | 183° |
| 2026-04-27 11:28 | 48.16435 | 51.73971 | 35957 ft | 405 kts | 183° |
| 2026-04-27 11:29 | 48.10823 | 51.74321 | 35955 ft | 405 kts | 182° |
| 2026-04-27 11:29 | 48.05186 | 51.74673 | 35957 ft | 406 kts | 182° |
| 2026-04-27 11:30 | 47.99579 | 51.75020 | 35950 ft | 406 kts | 182° |
| 2026-04-27 11:30 | 47.93938 | 51.75370 | 35955 ft | 406 kts | 182° |
| 2026-04-27 11:31 | 47.88260 | 51.75721 | 35961 ft | 407 kts | 182° |
| 2026-04-27 11:31 | 47.82627 | 51.76067 | 35960 ft | 406 kts | 182° |
| 2026-04-27 11:32 | 47.76981 | 51.76410 | 35958 ft | 408 kts | 182° |
| 2026-04-27 11:32 | 47.71324 | 51.76751 | 35964 ft | 409 kts | 182° |
| 2026-04-27 11:33 | 47.65661 | 51.77091 | 35970 ft | 408 kts | 182° |
| 2026-04-27 11:33 | 47.60006 | 51.77429 | 35977 ft | 408 kts | 182° |
| 2026-04-27 11:34 | 47.54308 | 51.77771 | 35977 ft | 408 kts | 182° |
| 2026-04-27 11:34 | 47.48658 | 51.78106 | 35978 ft | 408 kts | 182° |
| 2026-04-27 11:35 | 47.43016 | 51.78443 | 35978 ft | 408 kts | 182° |
| 2026-04-27 11:35 | 47.37332 | 51.78780 | 35977 ft | 408 kts | 182° |
| 2026-04-27 11:36 | 47.31659 | 51.79114 | 35981 ft | 409 kts | 182° |
| 2026-04-27 11:36 | 47.25973 | 51.79449 | 35974 ft | 410 kts | 182° |
| 2026-04-27 11:37 | 47.20274 | 51.79786 | 35981 ft | 410 kts | 182° |
| 2026-04-27 11:37 | 47.14595 | 51.79796 | 35979 ft | 408 kts | 187° |
| 2026-04-27 11:38 | 47.09001 | 51.78923 | 35980 ft | 404 kts | 193° |
| 2026-04-27 11:38 | 47.03476 | 51.77684 | 35984 ft | 404 kts | 192° |
| 2026-04-27 11:39 | 46.97929 | 51.76453 | 35984 ft | 404 kts | 192° |
| 2026-04-27 11:39 | 46.92390 | 51.75223 | 35986 ft | 404 kts | 192° |
| 2026-04-27 11:40 | 46.86800 | 51.73982 | 35988 ft | 404 kts | 192° |
| 2026-04-27 11:40 | 46.81259 | 51.72752 | 35984 ft | 404 kts | 192° |
| 2026-04-27 11:41 | 46.75722 | 51.71524 | 35979 ft | 405 kts | 192° |
| 2026-04-27 11:41 | 46.70162 | 51.70294 | 35975 ft | 405 kts | 192° |
| 2026-04-27 11:42 | 46.64595 | 51.69067 | 35971 ft | 405 kts | 192° |
| 2026-04-27 11:42 | 46.59018 | 51.67839 | 35967 ft | 405 kts | 192° |
| 2026-04-27 11:43 | 46.53462 | 51.66616 | 35963 ft | 405 kts | 192° |
| 2026-04-27 11:43 | 46.47930 | 51.65402 | 35975 ft | 405 kts | 192° |
| 2026-04-27 11:44 | 46.42371 | 51.64186 | 35967 ft | 404 kts | 192° |
| 2026-04-27 11:44 | 46.36823 | 51.62967 | 35974 ft | 405 kts | 192° |
| 2026-04-27 11:45 | 46.32193 | 51.61949 | 35974 ft | 405 kts | 192° |
| 2026-04-27 11:45 | 46.25697 | 51.60523 | 35974 ft | 405 kts | 192° |
| 2026-04-27 11:46 | 46.20157 | 51.59311 | 35970 ft | 405 kts | 192° |
| 2026-04-27 11:46 | 46.14569 | 51.58088 | 35974 ft | 405 kts | 192° |
| 2026-04-27 11:47 | 46.09030 | 51.56879 | 35973 ft | 405 kts | 192° |
| 2026-04-27 11:47 | 46.03475 | 51.55668 | 35972 ft | 405 kts | 192° |
| 2026-04-27 11:48 | 45.97916 | 51.54460 | 35963 ft | 405 kts | 192° |
| 2026-04-27 11:48 | 45.92342 | 51.53251 | 35967 ft | 405 kts | 192° |
| 2026-04-27 11:49 | 45.86746 | 51.52038 | 35957 ft | 405 kts | 192° |
| 2026-04-27 11:49 | 45.81193 | 51.50837 | 35960 ft | 406 kts | 192° |
| 2026-04-27 11:50 | 45.75624 | 51.49636 | 35951 ft | 406 kts | 192° |
| 2026-04-27 11:50 | 45.70028 | 51.48432 | 35959 ft | 406 kts | 192° |
| 2026-04-27 11:51 | 45.64468 | 51.47241 | 35954 ft | 406 kts | 192° |
| 2026-04-27 11:52 | 45.56086 | 51.45454 | 35960 ft | 406 kts | 192° |
| 2026-04-27 11:52 | 45.50499 | 51.44261 | 35948 ft | 405 kts | 192° |
| 2026-04-27 11:53 | 45.44944 | 51.43079 | 35959 ft | 405 kts | 192° |
| 2026-04-27 11:53 | 45.39372 | 51.41894 | 35951 ft | 406 kts | 192° |
| 2026-04-27 11:54 | 45.33780 | 51.40708 | 35960 ft | 406 kts | 192° |
| 2026-04-27 11:54 | 45.28207 | 51.39528 | 35961 ft | 406 kts | 192° |
| 2026-04-27 11:55 | 45.22598 | 51.38342 | 35961 ft | 407 kts | 192° |
| 2026-04-27 11:55 | 45.17039 | 51.37172 | 35961 ft | 407 kts | 192° |
| 2026-04-27 11:56 | 45.11422 | 51.35989 | 35960 ft | 406 kts | 192° |
| 2026-04-27 11:56 | 45.05854 | 51.34820 | 35959 ft | 406 kts | 191° |
| 2026-04-27 11:57 | 45.00272 | 51.33650 | 35958 ft | 406 kts | 191° |
| 2026-04-27 11:57 | 44.94676 | 51.32479 | 35958 ft | 406 kts | 191° |
| 2026-04-27 11:58 | 44.89084 | 51.31309 | 35961 ft | 406 kts | 191° |
| 2026-04-27 11:58 | 44.83485 | 51.30143 | 35957 ft | 407 kts | 191° |
| 2026-04-27 11:59 | 44.77932 | 51.28933 | 35958 ft | 406 kts | 193° |
| 2026-04-27 11:59 | 44.72369 | 51.27524 | 35956 ft | 406 kts | 193° |
| 2026-04-27 12:00 | 44.66811 | 51.26115 | 35951 ft | 406 kts | 193° |
| 2026-04-27 12:00 | 44.61283 | 51.24724 | 35950 ft | 406 kts | 193° |
| 2026-04-27 12:01 | 44.55716 | 51.23333 | 35946 ft | 406 kts | 193° |
| 2026-04-27 12:01 | 44.50162 | 51.21949 | 35951 ft | 405 kts | 193° |
| 2026-04-27 12:02 | 44.44644 | 51.20574 | 35946 ft | 405 kts | 193° |
| 2026-04-27 12:02 | 44.39129 | 51.19202 | 35938 ft | 405 kts | 193° |
| 2026-04-27 12:03 | 44.33561 | 51.17822 | 35939 ft | 405 kts | 193° |
| 2026-04-27 12:03 | 44.28036 | 51.16455 | 35949 ft | 404 kts | 194° |
| 2026-04-27 12:04 | 44.22527 | 51.15095 | 35953 ft | 404 kts | 194° |
| 2026-04-27 12:04 | 44.16980 | 51.13726 | 35950 ft | 405 kts | 194° |
| 2026-04-27 12:05 | 44.11428 | 51.12359 | 35949 ft | 404 kts | 194° |
| 2026-04-27 12:05 | 44.05941 | 51.11009 | 35946 ft | 404 kts | 194° |
| 2026-04-27 12:06 | 44.00384 | 51.09647 | 35947 ft | 404 kts | 194° |
| 2026-04-27 12:06 | 43.94948 | 51.07898 | 35940 ft | 399 kts | 204° |
| 2026-04-27 12:07 | 43.90086 | 51.04356 | 35947 ft | 394 kts | 218° |
| 2026-04-27 12:07 | 43.86109 | 50.99224 | 35935 ft | 393 kts | 232° |
| 2026-04-27 12:08 | 43.83232 | 50.92817 | 35933 ft | 393 kts | 245° |
| 2026-04-27 12:08 | 43.81115 | 50.85849 | 35924 ft | 393 kts | 247° |
| 2026-04-27 12:09 | 43.79042 | 50.78898 | 35927 ft | 393 kts | 247° |
| 2026-04-27 12:09 | 43.76969 | 50.71955 | 35936 ft | 393 kts | 247° |
| 2026-04-27 12:10 | 43.74885 | 50.64997 | 35938 ft | 392 kts | 247° |
| 2026-04-27 12:10 | 43.72791 | 50.58020 | 35933 ft | 393 kts | 247° |
| 2026-04-27 12:11 | 43.70714 | 50.51113 | 35934 ft | 393 kts | 247° |
| 2026-04-27 12:11 | 43.68624 | 50.44181 | 35934 ft | 392 kts | 247° |
| 2026-04-27 12:12 | 43.66522 | 50.37235 | 35935 ft | 392 kts | 247° |
| 2026-04-27 12:12 | 43.64418 | 50.30298 | 35938 ft | 393 kts | 246° |
| 2026-04-27 12:13 | 43.62323 | 50.23410 | 35938 ft | 392 kts | 246° |
| 2026-04-27 12:13 | 43.60209 | 50.16475 | 35939 ft | 393 kts | 246° |
| 2026-04-27 12:14 | 43.58096 | 50.09565 | 35939 ft | 392 kts | 247° |
| 2026-04-27 12:14 | 43.55979 | 50.02660 | 35943 ft | 392 kts | 247° |
| 2026-04-27 12:15 | 43.53849 | 49.95731 | 35946 ft | 392 kts | 247° |
| 2026-04-27 12:15 | 43.51724 | 49.88833 | 35944 ft | 392 kts | 247° |
| 2026-04-27 12:16 | 43.49606 | 49.81973 | 35944 ft | 392 kts | 247° |
| 2026-04-27 12:16 | 43.47475 | 49.75095 | 35949 ft | 392 kts | 247° |
| 2026-04-27 12:17 | 43.45340 | 49.68221 | 35954 ft | 392 kts | 247° |
| 2026-04-27 12:17 | 43.43198 | 49.61339 | 35958 ft | 392 kts | 247° |
| 2026-04-27 12:18 | 43.41053 | 49.54467 | 35961 ft | 392 kts | 247° |
| 2026-04-27 12:18 | 43.38905 | 49.47580 | 35956 ft | 392 kts | 247° |
| 2026-04-27 12:19 | 43.36808 | 49.40724 | 35964 ft | 391 kts | 247° |
| 2026-04-27 12:19 | 43.34695 | 49.33832 | 35962 ft | 392 kts | 247° |
| 2026-04-27 12:20 | 43.32575 | 49.26937 | 35965 ft | 391 kts | 247° |
| 2026-04-27 12:20 | 43.30458 | 49.20070 | 35974 ft | 391 kts | 247° |
| 2026-04-27 12:21 | 43.28347 | 49.13240 | 35974 ft | 391 kts | 247° |
| 2026-04-27 12:21 | 43.26234 | 49.06422 | 35976 ft | 390 kts | 247° |
| 2026-04-27 12:22 | 43.24106 | 48.99572 | 35976 ft | 390 kts | 246° |
| 2026-04-27 12:22 | 43.21975 | 48.92733 | 35978 ft | 390 kts | 246° |
| 2026-04-27 12:23 | 43.19855 | 48.85945 | 35980 ft | 391 kts | 246° |
| 2026-04-27 12:23 | 43.17711 | 48.79103 | 35982 ft | 391 kts | 246° |
| 2026-04-27 12:24 | 43.15587 | 48.72335 | 35978 ft | 390 kts | 246° |
| 2026-04-27 12:24 | 43.13439 | 48.65512 | 35983 ft | 391 kts | 247° |
| 2026-04-27 12:25 | 43.11345 | 48.58678 | 35985 ft | 390 kts | 247° |
| 2026-04-27 12:25 | 43.09268 | 48.51862 | 35985 ft | 389 kts | 247° |
| 2026-04-27 12:26 | 43.07185 | 48.45056 | 35984 ft | 389 kts | 247° |
| 2026-04-27 12:26 | 43.05095 | 48.38242 | 35983 ft | 388 kts | 247° |
| 2026-04-27 12:27 | 43.03004 | 48.31450 | 35986 ft | 388 kts | 246° |
| 2026-04-27 12:27 | 43.00911 | 48.24668 | 35988 ft | 390 kts | 246° |
| 2026-04-27 12:28 | 42.98808 | 48.17870 | 35987 ft | 390 kts | 246° |
| 2026-04-27 12:28 | 42.96698 | 48.11067 | 35989 ft | 389 kts | 246° |
| 2026-04-27 12:29 | 42.94588 | 48.04280 | 35992 ft | 389 kts | 246° |
| 2026-04-27 12:29 | 42.92478 | 47.97510 | 35993 ft | 389 kts | 246° |
| 2026-04-27 12:30 | 42.90374 | 47.90781 | 35998 ft | 388 kts | 246° |
| 2026-04-27 12:30 | 42.88249 | 47.83998 | 35999 ft | 389 kts | 246° |
| 2026-04-27 12:31 | 42.86132 | 47.77255 | 35997 ft | 389 kts | 246° |
| 2026-04-27 12:31 | 42.84014 | 47.70533 | 35997 ft | 389 kts | 246° |
| 2026-04-27 12:32 | 42.82041 | 47.63686 | 35999 ft | 390 kts | 250° |
| 2026-04-27 12:32 | 42.80523 | 47.56627 | 35997 ft | 391 kts | 253° |
| 2026-04-27 12:33 | 42.79074 | 47.49529 | 36003 ft | 391 kts | 253° |
| 2026-04-27 12:33 | 42.77620 | 47.42409 | 36006 ft | 390 kts | 253° |
| 2026-04-27 12:34 | 42.76166 | 47.35308 | 36016 ft | 391 kts | 253° |
| 2026-04-27 12:34 | 42.74711 | 47.28223 | 36026 ft | 390 kts | 252° |
| 2026-04-27 12:35 | 42.73258 | 47.21169 | 36036 ft | 390 kts | 252° |
| 2026-04-27 12:35 | 42.71785 | 47.14044 | 36045 ft | 391 kts | 252° |
| 2026-04-27 12:36 | 42.70313 | 47.06945 | 36053 ft | 391 kts | 252° |
| 2026-04-27 12:36 | 42.68846 | 46.99896 | 36062 ft | 391 kts | 252° |
| 2026-04-27 12:37 | 42.67358 | 46.92794 | 36064 ft | 391 kts | 252° |
| 2026-04-27 12:37 | 42.65863 | 46.85694 | 36059 ft | 392 kts | 252° |
| 2026-04-27 12:38 | 42.64363 | 46.78592 | 36066 ft | 392 kts | 252° |
| 2026-04-27 12:38 | 42.62864 | 46.71510 | 36074 ft | 392 kts | 252° |
| 2026-04-27 12:39 | 42.61355 | 46.64400 | 36072 ft | 393 kts | 252° |
| 2026-04-27 12:39 | 42.59840 | 46.57289 | 36071 ft | 393 kts | 252° |
| 2026-04-27 12:40 | 42.58315 | 46.50160 | 36068 ft | 393 kts | 252° |
| 2026-04-27 12:40 | 42.56800 | 46.43095 | 36065 ft | 393 kts | 252° |
| 2026-04-27 12:41 | 42.55271 | 46.35990 | 36066 ft | 394 kts | 252° |
| 2026-04-27 12:41 | 42.53729 | 46.28851 | 36077 ft | 394 kts | 251° |
| 2026-04-27 12:42 | 42.52192 | 46.21755 | 36097 ft | 394 kts | 251° |
| 2026-04-27 12:42 | 42.50645 | 46.14642 | 36094 ft | 394 kts | 251° |
| 2026-04-27 12:43 | 42.49099 | 46.07547 | 36073 ft | 394 kts | 251° |
| 2026-04-27 12:43 | 42.47546 | 46.00446 | 36052 ft | 394 kts | 251° |
| 2026-04-27 12:44 | 42.45981 | 45.93315 | 36046 ft | 394 kts | 251° |